sensor_id;sensor_type;location;lat;lon;timestamp;P1;durP1;ratioP1;P2;durP2;ratioP2
16979;SDS011;42288;52.182;21.156;2022-08-01T00:00:36;6.53;;;3.40;;
16979;SDS011;42288;52.182;21.156;2022-08-01T00:03:02;4.97;;;3.40;;
16979;SDS011;42288;52.182;21.156;2022-08-01T00:05:28;5.90;;;3.30;;
16979;SDS011;42288;52.182;21.156;2022-08-01T00:07:53;9.07;;;3.90;;
16979;SDS011;42288;52.182;21.156;2022-08-01T00:10:19;6.90;;;3.20;;
16979;SDS011;42288;52.182;21.156;2022-08-01T00:12:46;5.10;;;3.73;;
16979;SDS011;42288;52.182;21.156;2022-08-01T00:15:13;7.60;;;3.60;;
16979;SDS011;42288;52.182;21.156;2022-08-01T00:17:40;7.50;;;3.60;;
16979;SDS011;42288;52.182;21.156;2022-08-01T00:20:06;8.43;;;4.30;;
16979;SDS011;42288;52.182;21.156;2022-08-01T00:22:34;13.13;;;3.80;;
16979;SDS011;42288;52.182;21.156;2022-08-01T00:25:00;9.70;;;3.90;;
16979;SDS011;42288;52.182;21.156;2022-08-01T00:27:26;8.70;;;4.17;;
16979;SDS011;42288;52.182;21.156;2022-08-01T00:29:52;16.27;;;4.07;;
16979;SDS011;42288;52.182;21.156;2022-08-01T00:32:18;11.97;;;4.30;;
16979;SDS011;42288;52.182;21.156;2022-08-01T00:34:43;7.60;;;4.10;;
16979;SDS011;42288;52.182;21.156;2022-08-01T00:37:09;8.37;;;3.73;;
16979;SDS011;42288;52.182;21.156;2022-08-01T00:39:35;8.10;;;4.00;;
16979;SDS011;42288;52.182;21.156;2022-08-01T00:42:05;10.30;;;4.13;;
16979;SDS011;42288;52.182;21.156;2022-08-01T00:44:32;10.07;;;3.70;;
16979;SDS011;42288;52.182;21.156;2022-08-01T00:46:58;7.47;;;3.40;;
16979;SDS011;42288;52.182;21.156;2022-08-01T00:49:23;6.50;;;3.33;;
16979;SDS011;42288;52.182;21.156;2022-08-01T00:51:49;7.60;;;3.63;;
16979;SDS011;42288;52.182;21.156;2022-08-01T00:54:15;7.43;;;3.30;;
16979;SDS011;42288;52.182;21.156;2022-08-01T00:56:40;10.07;;;3.20;;
16979;SDS011;42288;52.182;21.156;2022-08-01T00:59:06;9.33;;;3.10;;
16979;SDS011;42288;52.182;21.156;2022-08-01T01:01:33;7.77;;;3.10;;
16979;SDS011;42288;52.182;21.156;2022-08-01T01:03:59;10.67;;;3.50;;
16979;SDS011;42288;52.182;21.156;2022-08-01T01:14:54;5.90;;;2.93;;
16979;SDS011;42288;52.182;21.156;2022-08-01T01:17:55;6.73;;;3.07;;
16979;SDS011;42288;52.182;21.156;2022-08-01T01:20:33;5.97;;;3.40;;
16979;SDS011;42288;52.182;21.156;2022-08-01T01:31:07;5.13;;;3.17;;
16979;SDS011;42288;52.182;21.156;2022-08-01T01:33:36;6.07;;;2.90;;
16979;SDS011;42288;52.182;21.156;2022-08-01T01:36:05;10.63;;;3.20;;
16979;SDS011;42288;52.182;21.156;2022-08-01T01:38:34;5.83;;;3.30;;
16979;SDS011;42288;52.182;21.156;2022-08-01T01:41:07;4.87;;;3.07;;
16979;SDS011;42288;52.182;21.156;2022-08-01T01:43:33;6.23;;;2.97;;
16979;SDS011;42288;52.182;21.156;2022-08-01T01:46:01;8.43;;;3.20;;
16979;SDS011;42288;52.182;21.156;2022-08-01T01:48:29;6.10;;;3.37;;
16979;SDS011;42288;52.182;21.156;2022-08-01T01:50:55;6.63;;;3.20;;
16979;SDS011;42288;52.182;21.156;2022-08-01T01:53:22;5.90;;;3.93;;
16979;SDS011;42288;52.182;21.156;2022-08-01T01:55:50;10.43;;;3.10;;
16979;SDS011;42288;52.182;21.156;2022-08-01T01:58:18;10.50;;;3.80;;
16979;SDS011;42288;52.182;21.156;2022-08-01T02:00:45;7.53;;;3.73;;
16979;SDS011;42288;52.182;21.156;2022-08-01T02:03:13;9.77;;;3.53;;
16979;SDS011;42288;52.182;21.156;2022-08-01T02:05:40;11.00;;;3.80;;
16979;SDS011;42288;52.182;21.156;2022-08-01T02:08:07;8.77;;;3.47;;
16979;SDS011;42288;52.182;21.156;2022-08-01T02:10:35;5.87;;;3.17;;
16979;SDS011;42288;52.182;21.156;2022-08-01T02:13:04;7.03;;;3.40;;
16979;SDS011;42288;52.182;21.156;2022-08-01T02:15:31;6.70;;;3.37;;
16979;SDS011;42288;52.182;21.156;2022-08-01T02:18:03;6.60;;;3.10;;
16979;SDS011;42288;52.182;21.156;2022-08-01T02:20:30;6.80;;;3.07;;
16979;SDS011;42288;52.182;21.156;2022-08-01T02:23:05;9.10;;;3.27;;
16979;SDS011;42288;52.182;21.156;2022-08-01T02:25:34;5.17;;;3.20;;
16979;SDS011;42288;52.182;21.156;2022-08-01T02:28:04;9.93;;;3.17;;
16979;SDS011;42288;52.182;21.156;2022-08-01T02:30:35;3.87;;;2.87;;
16979;SDS011;42288;52.182;21.156;2022-08-01T02:33:03;8.83;;;2.53;;
16979;SDS011;42288;52.182;21.156;2022-08-01T02:35:35;6.53;;;3.13;;
16979;SDS011;42288;52.182;21.156;2022-08-01T02:38:04;6.17;;;3.03;;
16979;SDS011;42288;52.182;21.156;2022-08-01T02:40:32;9.63;;;2.80;;
16979;SDS011;42288;52.182;21.156;2022-08-01T02:43:03;6.20;;;2.80;;
16979;SDS011;42288;52.182;21.156;2022-08-01T02:45:30;5.30;;;3.00;;
16979;SDS011;42288;52.182;21.156;2022-08-01T02:48:01;8.23;;;3.00;;
16979;SDS011;42288;52.182;21.156;2022-08-01T02:50:34;4.80;;;2.70;;
16979;SDS011;42288;52.182;21.156;2022-08-01T02:53:02;4.40;;;3.00;;
16979;SDS011;42288;52.182;21.156;2022-08-01T02:55:31;4.53;;;2.60;;
16979;SDS011;42288;52.182;21.156;2022-08-01T02:57:57;6.37;;;3.07;;
16979;SDS011;42288;52.182;21.156;2022-08-01T03:00:25;5.77;;;2.63;;
16979;SDS011;42288;52.182;21.156;2022-08-01T03:02:52;4.23;;;2.30;;
16979;SDS011;42288;52.182;21.156;2022-08-01T03:05:20;6.17;;;2.77;;
16979;SDS011;42288;52.182;21.156;2022-08-01T03:07:46;7.23;;;3.10;;
16979;SDS011;42288;52.182;21.156;2022-08-01T03:10:13;5.83;;;2.63;;
16979;SDS011;42288;52.182;21.156;2022-08-01T03:12:41;4.47;;;3.03;;
16979;SDS011;42288;52.182;21.156;2022-08-01T03:15:07;6.93;;;3.17;;
16979;SDS011;42288;52.182;21.156;2022-08-01T03:17:35;11.77;;;2.97;;
16979;SDS011;42288;52.182;21.156;2022-08-01T03:20:03;9.17;;;3.40;;
16979;SDS011;42288;52.182;21.156;2022-08-01T03:22:30;9.20;;;3.27;;
16979;SDS011;42288;52.182;21.156;2022-08-01T03:24:58;11.47;;;3.33;;
16979;SDS011;42288;52.182;21.156;2022-08-01T03:27:24;10.20;;;3.07;;
16979;SDS011;42288;52.182;21.156;2022-08-01T03:29:51;5.73;;;3.23;;
16979;SDS011;42288;52.182;21.156;2022-08-01T03:32:19;7.80;;;2.90;;
16979;SDS011;42288;52.182;21.156;2022-08-01T03:34:46;7.60;;;2.70;;
16979;SDS011;42288;52.182;21.156;2022-08-01T03:40:02;8.53;;;3.23;;
16979;SDS011;42288;52.182;21.156;2022-08-01T03:42:42;5.47;;;3.13;;
16979;SDS011;42288;52.182;21.156;2022-08-01T03:45:11;9.73;;;2.73;;
16979;SDS011;42288;52.182;21.156;2022-08-01T03:47:46;5.30;;;2.70;;
16979;SDS011;42288;52.182;21.156;2022-08-01T03:50:14;7.13;;;3.20;;
16979;SDS011;42288;52.182;21.156;2022-08-01T03:52:42;8.63;;;2.80;;
16979;SDS011;42288;52.182;21.156;2022-08-01T03:55:10;6.37;;;3.07;;
16979;SDS011;42288;52.182;21.156;2022-08-01T03:57:37;7.63;;;3.60;;
16979;SDS011;42288;52.182;21.156;2022-08-01T04:00:05;7.30;;;2.67;;
16979;SDS011;42288;52.182;21.156;2022-08-01T04:02:33;5.40;;;2.83;;
16979;SDS011;42288;52.182;21.156;2022-08-01T04:05:00;6.23;;;3.00;;
16979;SDS011;42288;52.182;21.156;2022-08-01T04:07:28;5.00;;;3.10;;
16979;SDS011;42288;52.182;21.156;2022-08-01T04:09:56;7.03;;;3.00;;
16979;SDS011;42288;52.182;21.156;2022-08-01T04:12:22;9.20;;;3.60;;
16979;SDS011;42288;52.182;21.156;2022-08-01T04:14:48;6.93;;;3.17;;
16979;SDS011;42288;52.182;21.156;2022-08-01T04:17:14;8.20;;;3.23;;
16979;SDS011;42288;52.182;21.156;2022-08-01T04:19:43;6.50;;;3.00;;
16979;SDS011;42288;52.182;21.156;2022-08-01T04:22:09;6.17;;;3.07;;
16979;SDS011;42288;52.182;21.156;2022-08-01T04:24:36;7.13;;;3.00;;
16979;SDS011;42288;52.182;21.156;2022-08-01T04:27:03;6.93;;;2.97;;
16979;SDS011;42288;52.182;21.156;2022-08-01T04:29:34;4.83;;;2.97;;
16979;SDS011;42288;52.182;21.156;2022-08-01T04:32:02;9.13;;;3.10;;
16979;SDS011;42288;52.182;21.156;2022-08-01T04:34:28;5.27;;;2.70;;
16979;SDS011;42288;52.182;21.156;2022-08-01T04:36:57;4.60;;;2.70;;
16979;SDS011;42288;52.182;21.156;2022-08-01T04:39:24;6.83;;;3.00;;
16979;SDS011;42288;52.182;21.156;2022-08-01T04:41:53;3.47;;;2.73;;
16979;SDS011;42288;52.182;21.156;2022-08-01T04:44:22;5.97;;;3.10;;
16979;SDS011;42288;52.182;21.156;2022-08-01T04:46:49;7.73;;;2.80;;
16979;SDS011;42288;52.182;21.156;2022-08-01T04:49:16;9.90;;;3.27;;
16979;SDS011;42288;52.182;21.156;2022-08-01T04:51:51;4.43;;;3.40;;
16979;SDS011;42288;52.182;21.156;2022-08-01T04:54:22;8.77;;;3.20;;
16979;SDS011;42288;52.182;21.156;2022-08-01T04:56:52;7.53;;;3.73;;
16979;SDS011;42288;52.182;21.156;2022-08-01T04:59:20;7.90;;;3.57;;
16979;SDS011;42288;52.182;21.156;2022-08-01T05:02:04;8.13;;;3.00;;
16979;SDS011;42288;52.182;21.156;2022-08-01T05:04:30;9.77;;;3.70;;
16979;SDS011;42288;52.182;21.156;2022-08-01T05:06:56;6.17;;;2.90;;
16979;SDS011;42288;52.182;21.156;2022-08-01T05:09:21;7.93;;;3.50;;
16979;SDS011;42288;52.182;21.156;2022-08-01T05:11:47;6.43;;;3.13;;
16979;SDS011;42288;52.182;21.156;2022-08-01T05:14:13;5.87;;;4.07;;
16979;SDS011;42288;52.182;21.156;2022-08-01T05:16:38;8.33;;;3.40;;
16979;SDS011;42288;52.182;21.156;2022-08-01T05:19:04;5.13;;;3.10;;
16979;SDS011;42288;52.182;21.156;2022-08-01T05:21:29;4.20;;;3.30;;
16979;SDS011;42288;52.182;21.156;2022-08-01T05:23:55;8.10;;;3.47;;
16979;SDS011;42288;52.182;21.156;2022-08-01T05:26:20;6.53;;;3.33;;
16979;SDS011;42288;52.182;21.156;2022-08-01T05:28:46;8.17;;;4.07;;
16979;SDS011;42288;52.182;21.156;2022-08-01T05:31:11;6.83;;;3.67;;
16979;SDS011;42288;52.182;21.156;2022-08-01T05:33:37;7.77;;;3.47;;
16979;SDS011;42288;52.182;21.156;2022-08-01T05:36:03;8.40;;;4.00;;
16979;SDS011;42288;52.182;21.156;2022-08-01T05:38:28;12.53;;;3.97;;
16979;SDS011;42288;52.182;21.156;2022-08-01T05:40:54;6.43;;;3.60;;
16979;SDS011;42288;52.182;21.156;2022-08-01T05:43:19;8.10;;;3.70;;
16979;SDS011;42288;52.182;21.156;2022-08-01T05:45:45;6.27;;;3.80;;
16979;SDS011;42288;52.182;21.156;2022-08-01T05:48:11;8.53;;;3.90;;
16979;SDS011;42288;52.182;21.156;2022-08-01T05:50:36;10.57;;;4.10;;
16979;SDS011;42288;52.182;21.156;2022-08-01T05:53:02;9.37;;;4.50;;
16979;SDS011;42288;52.182;21.156;2022-08-01T05:55:28;8.17;;;4.20;;
16979;SDS011;42288;52.182;21.156;2022-08-01T05:57:53;7.07;;;3.90;;
16979;SDS011;42288;52.182;21.156;2022-08-01T06:00:19;6.00;;;3.27;;
16979;SDS011;42288;52.182;21.156;2022-08-01T06:02:44;5.07;;;3.20;;
16979;SDS011;42288;52.182;21.156;2022-08-01T06:05:10;10.03;;;3.83;;
16979;SDS011;42288;52.182;21.156;2022-08-01T06:07:36;7.07;;;4.33;;
16979;SDS011;42288;52.182;21.156;2022-08-01T06:10:03;5.57;;;3.90;;
16979;SDS011;42288;52.182;21.156;2022-08-01T06:12:32;13.33;;;3.73;;
16979;SDS011;42288;52.182;21.156;2022-08-01T06:14:58;8.97;;;4.00;;
16979;SDS011;42288;52.182;21.156;2022-08-01T06:17:23;5.80;;;3.67;;
16979;SDS011;42288;52.182;21.156;2022-08-01T06:19:49;6.77;;;3.57;;
16979;SDS011;42288;52.182;21.156;2022-08-01T06:22:14;7.33;;;3.57;;
16979;SDS011;42288;52.182;21.156;2022-08-01T06:24:40;7.40;;;3.57;;
16979;SDS011;42288;52.182;21.156;2022-08-01T06:27:06;4.63;;;3.20;;
16979;SDS011;42288;52.182;21.156;2022-08-01T06:29:31;8.63;;;3.50;;
16979;SDS011;42288;52.182;21.156;2022-08-01T06:31:57;8.30;;;3.23;;
16979;SDS011;42288;52.182;21.156;2022-08-01T06:34:23;8.93;;;3.60;;
16979;SDS011;42288;52.182;21.156;2022-08-01T06:36:49;8.77;;;2.90;;
16979;SDS011;42288;52.182;21.156;2022-08-01T06:39:14;7.13;;;3.00;;
16979;SDS011;42288;52.182;21.156;2022-08-01T06:41:40;7.90;;;3.00;;
16979;SDS011;42288;52.182;21.156;2022-08-01T06:44:11;10.10;;;3.03;;
16979;SDS011;42288;52.182;21.156;2022-08-01T06:46:37;5.27;;;3.10;;
16979;SDS011;42288;52.182;21.156;2022-08-01T06:49:02;4.40;;;2.87;;
16979;SDS011;42288;52.182;21.156;2022-08-01T06:51:28;5.50;;;3.07;;
16979;SDS011;42288;52.182;21.156;2022-08-01T06:53:54;6.33;;;2.80;;
16979;SDS011;42288;52.182;21.156;2022-08-01T06:56:19;6.43;;;2.83;;
16979;SDS011;42288;52.182;21.156;2022-08-01T06:58:45;6.80;;;3.40;;
16979;SDS011;42288;52.182;21.156;2022-08-01T07:01:11;6.73;;;2.93;;
16979;SDS011;42288;52.182;21.156;2022-08-01T07:03:36;5.83;;;3.13;;
16979;SDS011;42288;52.182;21.156;2022-08-01T07:06:02;8.07;;;2.63;;
16979;SDS011;42288;52.182;21.156;2022-08-01T07:08:28;5.43;;;2.73;;
16979;SDS011;42288;52.182;21.156;2022-08-01T07:10:54;7.87;;;2.90;;
16979;SDS011;42288;52.182;21.156;2022-08-01T07:13:20;11.60;;;3.30;;
16979;SDS011;42288;52.182;21.156;2022-08-01T07:15:49;8.60;;;3.30;;
16979;SDS011;42288;52.182;21.156;2022-08-01T07:18:15;6.90;;;2.93;;
16979;SDS011;42288;52.182;21.156;2022-08-01T07:20:41;8.00;;;3.33;;
16979;SDS011;42288;52.182;21.156;2022-08-01T07:23:06;9.83;;;3.23;;
16979;SDS011;42288;52.182;21.156;2022-08-01T07:25:32;9.27;;;2.80;;
16979;SDS011;42288;52.182;21.156;2022-08-01T07:27:58;8.67;;;3.43;;
16979;SDS011;42288;52.182;21.156;2022-08-01T07:30:23;7.00;;;2.83;;
16979;SDS011;42288;52.182;21.156;2022-08-01T07:32:49;7.97;;;2.70;;
16979;SDS011;42288;52.182;21.156;2022-08-01T07:35:14;6.67;;;3.03;;
16979;SDS011;42288;52.182;21.156;2022-08-01T07:37:40;7.80;;;3.03;;
16979;SDS011;42288;52.182;21.156;2022-08-01T07:40:06;8.47;;;3.33;;
16979;SDS011;42288;52.182;21.156;2022-08-01T07:42:32;7.43;;;2.60;;
16979;SDS011;42288;52.182;21.156;2022-08-01T07:44:57;5.97;;;2.73;;
16979;SDS011;42288;52.182;21.156;2022-08-01T07:47:24;6.43;;;3.13;;
16979;SDS011;42288;52.182;21.156;2022-08-01T07:49:50;6.80;;;2.57;;
16979;SDS011;42288;52.182;21.156;2022-08-01T07:52:16;4.90;;;2.50;;
16979;SDS011;42288;52.182;21.156;2022-08-01T07:54:41;7.50;;;2.40;;
16979;SDS011;42288;52.182;21.156;2022-08-01T07:57:07;9.10;;;2.80;;
16979;SDS011;42288;52.182;21.156;2022-08-01T07:59:33;12.93;;;3.60;;
16979;SDS011;42288;52.182;21.156;2022-08-01T08:01:59;7.07;;;2.80;;
16979;SDS011;42288;52.182;21.156;2022-08-01T08:04:25;10.10;;;3.33;;
16979;SDS011;42288;52.182;21.156;2022-08-01T08:06:51;8.30;;;3.07;;
16979;SDS011;42288;52.182;21.156;2022-08-01T08:09:18;8.67;;;3.07;;
16979;SDS011;42288;52.182;21.156;2022-08-01T08:11:44;8.30;;;2.97;;
16979;SDS011;42288;52.182;21.156;2022-08-01T08:14:10;12.47;;;3.70;;
16979;SDS011;42288;52.182;21.156;2022-08-01T08:16:36;9.77;;;3.07;;
16979;SDS011;42288;52.182;21.156;2022-08-01T08:19:02;10.37;;;3.60;;
16979;SDS011;42288;52.182;21.156;2022-08-01T08:21:28;9.60;;;3.10;;
16979;SDS011;42288;52.182;21.156;2022-08-01T08:23:55;9.13;;;3.30;;
16979;SDS011;42288;52.182;21.156;2022-08-01T08:26:39;9.23;;;3.03;;
16979;SDS011;42288;52.182;21.156;2022-08-01T08:29:05;10.07;;;2.87;;
16979;SDS011;42288;52.182;21.156;2022-08-01T08:31:31;8.60;;;3.10;;
16979;SDS011;42288;52.182;21.156;2022-08-01T08:33:57;13.73;;;3.10;;
16979;SDS011;42288;52.182;21.156;2022-08-01T08:36:22;9.27;;;3.20;;
16979;SDS011;42288;52.182;21.156;2022-08-01T08:38:48;13.10;;;3.37;;
16979;SDS011;42288;52.182;21.156;2022-08-01T08:41:13;9.63;;;3.03;;
16979;SDS011;42288;52.182;21.156;2022-08-01T08:43:39;8.07;;;2.90;;
16979;SDS011;42288;52.182;21.156;2022-08-01T08:46:05;8.50;;;2.47;;
16979;SDS011;42288;52.182;21.156;2022-08-01T08:48:33;7.87;;;2.90;;
16979;SDS011;42288;52.182;21.156;2022-08-01T08:51:01;8.83;;;2.63;;
16979;SDS011;42288;52.182;21.156;2022-08-01T08:53:27;6.87;;;2.10;;
16979;SDS011;42288;52.182;21.156;2022-08-01T08:55:54;8.47;;;2.40;;
16979;SDS011;42288;52.182;21.156;2022-08-01T08:58:21;4.53;;;2.17;;
16979;SDS011;42288;52.182;21.156;2022-08-01T09:00:49;5.27;;;2.30;;
16979;SDS011;42288;52.182;21.156;2022-08-01T09:03:15;10.23;;;2.70;;
16979;SDS011;42288;52.182;21.156;2022-08-01T09:05:41;7.80;;;2.70;;
16979;SDS011;42288;52.182;21.156;2022-08-01T09:08:07;5.90;;;2.20;;
16979;SDS011;42288;52.182;21.156;2022-08-01T09:10:33;8.93;;;2.30;;
16979;SDS011;42288;52.182;21.156;2022-08-01T09:13:06;7.47;;;2.50;;
16979;SDS011;42288;52.182;21.156;2022-08-01T09:23:53;6.93;;;1.90;;
16979;SDS011;42288;52.182;21.156;2022-08-01T09:26:20;9.07;;;2.23;;
16979;SDS011;42288;52.182;21.156;2022-08-01T09:28:53;9.23;;;2.57;;
16979;SDS011;42288;52.182;21.156;2022-08-01T09:31:19;7.07;;;1.70;;
16979;SDS011;42288;52.182;21.156;2022-08-01T09:33:52;7.13;;;2.00;;
16979;SDS011;42288;52.182;21.156;2022-08-01T09:36:22;4.40;;;1.77;;
16979;SDS011;42288;52.182;21.156;2022-08-01T09:38:50;5.23;;;1.57;;
16979;SDS011;42288;52.182;21.156;2022-08-01T09:41:17;7.23;;;1.80;;
16979;SDS011;42288;52.182;21.156;2022-08-01T09:43:54;3.57;;;1.90;;
16979;SDS011;42288;52.182;21.156;2022-08-01T09:46:20;7.33;;;1.70;;
16979;SDS011;42288;52.182;21.156;2022-08-01T09:51:38;4.80;;;1.60;;
16979;SDS011;42288;52.182;21.156;2022-08-01T09:54:05;2.90;;;1.23;;
16979;SDS011;42288;52.182;21.156;2022-08-01T09:56:41;3.33;;;1.60;;
16979;SDS011;42288;52.182;21.156;2022-08-01T09:59:08;5.27;;;1.60;;
16979;SDS011;42288;52.182;21.156;2022-08-01T10:01:47;4.03;;;1.60;;
16979;SDS011;42288;52.182;21.156;2022-08-01T10:06:46;4.53;;;1.80;;
16979;SDS011;42288;52.182;21.156;2022-08-01T10:09:26;5.97;;;1.53;;
16979;SDS011;42288;52.182;21.156;2022-08-01T10:11:55;7.43;;;2.00;;
16979;SDS011;42288;52.182;21.156;2022-08-01T10:14:22;10.93;;;1.80;;
16979;SDS011;42288;52.182;21.156;2022-08-01T10:16:51;4.60;;;1.60;;
16979;SDS011;42288;52.182;21.156;2022-08-01T10:19:18;3.07;;;1.73;;
16979;SDS011;42288;52.182;21.156;2022-08-01T10:21:48;4.37;;;1.77;;
16979;SDS011;42288;52.182;21.156;2022-08-01T10:24:17;4.83;;;1.70;;
16979;SDS011;42288;52.182;21.156;2022-08-01T10:26:48;4.30;;;2.00;;
16979;SDS011;42288;52.182;21.156;2022-08-01T10:29:16;8.27;;;1.83;;
16979;SDS011;42288;52.182;21.156;2022-08-01T10:31:45;5.30;;;2.00;;
16979;SDS011;42288;52.182;21.156;2022-08-01T10:34:11;6.97;;;1.97;;
16979;SDS011;42288;52.182;21.156;2022-08-01T10:36:41;5.83;;;1.80;;
16979;SDS011;42288;52.182;21.156;2022-08-01T10:39:10;2.00;;;1.30;;
16979;SDS011;42288;52.182;21.156;2022-08-01T10:41:37;2.30;;;1.60;;
16979;SDS011;42288;52.182;21.156;2022-08-01T10:44:05;6.53;;;1.67;;
16979;SDS011;42288;52.182;21.156;2022-08-01T10:46:37;5.17;;;2.13;;
16979;SDS011;42288;52.182;21.156;2022-08-01T10:49:06;5.53;;;2.00;;
16979;SDS011;42288;52.182;21.156;2022-08-01T10:51:38;3.43;;;1.50;;
16979;SDS011;42288;52.182;21.156;2022-08-01T10:54:05;3.87;;;1.53;;
16979;SDS011;42288;52.182;21.156;2022-08-01T10:56:48;3.58;;;1.65;;
16979;SDS011;42288;52.182;21.156;2022-08-01T10:59:20;4.43;;;1.50;;
16979;SDS011;42288;52.182;21.156;2022-08-01T11:01:59;4.30;;;1.60;;
16979;SDS011;42288;52.182;21.156;2022-08-01T11:04:34;6.05;;;1.77;;
16979;SDS011;42288;52.182;21.156;2022-08-01T11:07:03;3.80;;;1.50;;
16979;SDS011;42288;52.182;21.156;2022-08-01T11:09:43;3.17;;;1.40;;
16979;SDS011;42288;52.182;21.156;2022-08-01T11:12:16;4.28;;;1.63;;
16979;SDS011;42288;52.182;21.156;2022-08-01T11:17:46;6.68;;;1.63;;
16979;SDS011;42288;52.182;21.156;2022-08-01T11:20:19;4.68;;;1.63;;
16979;SDS011;42288;52.182;21.156;2022-08-01T11:25:27;2.42;;;1.35;;
16979;SDS011;42288;52.182;21.156;2022-08-01T11:30:42;7.85;;;1.70;;
16979;SDS011;42288;52.182;21.156;2022-08-01T11:33:12;3.83;;;1.50;;
16979;SDS011;42288;52.182;21.156;2022-08-01T11:41:24;6.35;;;1.35;;
16979;SDS011;42288;52.182;21.156;2022-08-01T11:44:10;4.85;;;1.67;;
16979;SDS011;42288;52.182;21.156;2022-08-01T11:49:24;3.17;;;1.40;;
16979;SDS011;42288;52.182;21.156;2022-08-01T11:54:36;4.50;;;1.55;;
16979;SDS011;42288;52.182;21.156;2022-08-01T11:57:07;4.22;;;1.40;;
16979;SDS011;42288;52.182;21.156;2022-08-01T11:59:43;5.85;;;1.60;;
16979;SDS011;42288;52.182;21.156;2022-08-01T12:02:31;7.35;;;1.73;;
16979;SDS011;42288;52.182;21.156;2022-08-01T12:05:09;15.02;;;1.80;;
16979;SDS011;42288;52.182;21.156;2022-08-01T12:07:36;3.58;;;1.50;;
16979;SDS011;42288;52.182;21.156;2022-08-01T12:10:04;3.88;;;1.40;;
16979;SDS011;42288;52.182;21.156;2022-08-01T12:12:36;5.70;;;1.65;;
16979;SDS011;42288;52.182;21.156;2022-08-01T12:15:07;5.40;;;1.70;;
16979;SDS011;42288;52.182;21.156;2022-08-01T12:20:01;4.88;;;1.75;;
16979;SDS011;42288;52.182;21.156;2022-08-01T12:22:29;3.45;;;1.70;;
16979;SDS011;42288;52.182;21.156;2022-08-01T12:24:55;2.47;;;1.70;;
16979;SDS011;42288;52.182;21.156;2022-08-01T12:27:27;3.05;;;1.60;;
16979;SDS011;42288;52.182;21.156;2022-08-01T12:29:54;2.78;;;1.67;;
16979;SDS011;42288;52.182;21.156;2022-08-01T12:34:47;4.68;;;1.90;;
16979;SDS011;42288;52.182;21.156;2022-08-01T12:37:13;3.78;;;1.80;;
16979;SDS011;42288;52.182;21.156;2022-08-01T12:39:39;4.47;;;1.48;;
16979;SDS011;42288;52.182;21.156;2022-08-01T12:42:06;3.42;;;1.88;;
16979;SDS011;42288;52.182;21.156;2022-08-01T12:44:33;2.63;;;1.50;;
16979;SDS011;42288;52.182;21.156;2022-08-01T12:46:59;4.82;;;1.67;;
16979;SDS011;42288;52.182;21.156;2022-08-01T12:49:26;2.13;;;1.60;;
16979;SDS011;42288;52.182;21.156;2022-08-01T12:51:52;7.10;;;1.80;;
16979;SDS011;42288;52.182;21.156;2022-08-01T12:54:19;2.30;;;1.67;;
16979;SDS011;42288;52.182;21.156;2022-08-01T12:56:45;2.80;;;1.63;;
16979;SDS011;42288;52.182;21.156;2022-08-01T12:59:21;4.80;;;1.58;;
16979;SDS011;42288;52.182;21.156;2022-08-01T13:01:50;4.63;;;1.80;;
16979;SDS011;42288;52.182;21.156;2022-08-01T13:04:19;2.95;;;1.83;;
16979;SDS011;42288;52.182;21.156;2022-08-01T13:06:45;8.40;;;1.95;;
16979;SDS011;42288;52.182;21.156;2022-08-01T13:09:12;4.55;;;1.80;;
16979;SDS011;42288;52.182;21.156;2022-08-01T13:11:39;5.47;;;1.83;;
16979;SDS011;42288;52.182;21.156;2022-08-01T13:14:08;6.32;;;2.10;;
16979;SDS011;42288;52.182;21.156;2022-08-01T13:16:44;5.28;;;1.80;;
16979;SDS011;42288;52.182;21.156;2022-08-01T13:19:11;6.18;;;2.10;;
16979;SDS011;42288;52.182;21.156;2022-08-01T13:21:37;3.60;;;1.65;;
16979;SDS011;42288;52.182;21.156;2022-08-01T13:24:12;2.67;;;1.70;;
16979;SDS011;42288;52.182;21.156;2022-08-01T13:29:19;5.03;;;1.75;;
16979;SDS011;42288;52.182;21.156;2022-08-01T13:31:47;3.08;;;1.73;;
16979;SDS011;42288;52.182;21.156;2022-08-01T13:34:13;4.65;;;1.90;;
16979;SDS011;42288;52.182;21.156;2022-08-01T13:36:39;4.47;;;2.08;;
16979;SDS011;42288;52.182;21.156;2022-08-01T13:39:05;2.47;;;1.70;;
16979;SDS011;42288;52.182;21.156;2022-08-01T13:41:50;4.35;;;1.63;;
16979;SDS011;42288;52.182;21.156;2022-08-01T13:44:16;3.17;;;1.77;;
16979;SDS011;42288;52.182;21.156;2022-08-01T13:46:43;2.85;;;2.00;;
16979;SDS011;42288;52.182;21.156;2022-08-01T13:49:09;3.53;;;1.92;;
16979;SDS011;42288;52.182;21.156;2022-08-01T13:51:36;4.10;;;1.80;;
16979;SDS011;42288;52.182;21.156;2022-08-01T13:54:02;3.25;;;1.60;;
16979;SDS011;42288;52.182;21.156;2022-08-01T13:56:29;7.32;;;2.13;;
16979;SDS011;42288;52.182;21.156;2022-08-01T13:58:55;3.55;;;2.05;;
16979;SDS011;42288;52.182;21.156;2022-08-01T14:01:21;7.40;;;2.38;;
16979;SDS011;42288;52.182;21.156;2022-08-01T14:03:48;2.60;;;1.90;;
16979;SDS011;42288;52.182;21.156;2022-08-01T14:06:14;4.90;;;1.80;;
16979;SDS011;42288;52.182;21.156;2022-08-01T14:08:41;3.95;;;1.50;;
16979;SDS011;42288;52.182;21.156;2022-08-01T14:11:08;3.30;;;2.00;;
16979;SDS011;42288;52.182;21.156;2022-08-01T14:13:33;5.55;;;1.90;;
16979;SDS011;42288;52.182;21.156;2022-08-01T14:16:02;4.15;;;2.00;;
16979;SDS011;42288;52.182;21.156;2022-08-01T14:18:27;3.75;;;1.88;;
16979;SDS011;42288;52.182;21.156;2022-08-01T14:20:53;4.00;;;1.80;;
16979;SDS011;42288;52.182;21.156;2022-08-01T14:23:18;4.35;;;2.10;;
16979;SDS011;42288;52.182;21.156;2022-08-01T14:25:44;5.03;;;2.20;;
16979;SDS011;42288;52.182;21.156;2022-08-01T14:28:10;4.35;;;2.05;;
16979;SDS011;42288;52.182;21.156;2022-08-01T14:30:35;4.50;;;2.20;;
16979;SDS011;42288;52.182;21.156;2022-08-01T14:33:01;3.55;;;2.15;;
16979;SDS011;42288;52.182;21.156;2022-08-01T14:35:27;3.00;;;2.25;;
16979;SDS011;42288;52.182;21.156;2022-08-01T14:37:52;3.55;;;2.63;;
16979;SDS011;42288;52.182;21.156;2022-08-01T14:40:18;4.75;;;2.55;;
16979;SDS011;42288;52.182;21.156;2022-08-01T14:42:44;3.75;;;2.90;;
16979;SDS011;42288;52.182;21.156;2022-08-01T14:45:10;4.40;;;2.53;;
16979;SDS011;42288;52.182;21.156;2022-08-01T14:47:37;5.45;;;2.95;;
16979;SDS011;42288;52.182;21.156;2022-08-01T14:50:05;3.55;;;2.80;;
16979;SDS011;42288;52.182;21.156;2022-08-01T14:52:33;4.72;;;2.75;;
16979;SDS011;42288;52.182;21.156;2022-08-01T14:54:59;3.67;;;2.60;;
16979;SDS011;42288;52.182;21.156;2022-08-01T14:57:25;3.35;;;2.70;;
16979;SDS011;42288;52.182;21.156;2022-08-01T14:59:50;3.33;;;2.65;;
16979;SDS011;42288;52.182;21.156;2022-08-01T15:02:16;2.92;;;2.50;;
16979;SDS011;42288;52.182;21.156;2022-08-01T15:04:46;5.05;;;2.58;;
16979;SDS011;42288;52.182;21.156;2022-08-01T15:07:12;3.55;;;2.45;;
16979;SDS011;42288;52.182;21.156;2022-08-01T15:09:38;5.53;;;2.83;;
16979;SDS011;42288;52.182;21.156;2022-08-01T15:12:04;5.32;;;2.88;;
16979;SDS011;42288;52.182;21.156;2022-08-01T15:14:30;5.82;;;2.10;;
16979;SDS011;42288;52.182;21.156;2022-08-01T15:17:17;3.53;;;2.20;;
16979;SDS011;42288;52.182;21.156;2022-08-01T15:19:45;3.83;;;2.30;;
16979;SDS011;42288;52.182;21.156;2022-08-01T15:22:11;3.10;;;1.80;;
16979;SDS011;42288;52.182;21.156;2022-08-01T15:24:37;5.65;;;2.30;;
16979;SDS011;42288;52.182;21.156;2022-08-01T15:27:03;5.13;;;2.00;;
16979;SDS011;42288;52.182;21.156;2022-08-01T15:29:28;3.90;;;1.90;;
16979;SDS011;42288;52.182;21.156;2022-08-01T15:31:54;5.88;;;2.25;;
16979;SDS011;42288;52.182;21.156;2022-08-01T15:34:20;4.88;;;2.25;;
16979;SDS011;42288;52.182;21.156;2022-08-01T15:36:46;7.43;;;2.55;;